Friday, October 20, 2017, 9:13 PM EDT
Back to Local

KDYL, Doylestown Airport

Location: Doylestown, PA, United States Lat: 40.333
Local Time: 9:13 PM EDT ( 1:13 GMT) Lon: -75.117
Time Zone: US/Eastern Elev: 393 ft

Show me the last for .
Show Decoded

2017-10-20 20:54 METAR KDYL 210054Z AUTO 00000KT 10SM CLR 13/04 A3019 RMK AO2 SLP225 T01330039 =
2017-10-20 19:54 METAR KDYL 202354Z AUTO 00000KT 10SM CLR 14/03 A3018 RMK AO2 SLP221 T01440033
                 10228 20144 53013 =
2017-10-20 18:54 METAR KDYL 202254Z AUTO 33004KT 10SM CLR 18/01 A3017 RMK AO2 SLP216 T01780011 =
2017-10-20 17:54 METAR KDYL 202154Z AUTO 34005KT 10SM CLR 21/01 A3015 RMK AO2 SLP210 T02060006 =
2017-10-20 16:54 METAR KDYL 202054Z AUTO 31007KT 10SM CLR 23/M02 A3014 RMK AO2 SLP205 T02281022
                 56005 =
2017-10-20 15:54 METAR KDYL 201954Z AUTO 31008KT 10SM CLR 23/M01 A3014 RMK AO2 SLP206 T02281011 =
2017-10-20 14:54 METAR KDYL 201854Z AUTO 30008G17KT 10SM CLR 22/M02 A3015 RMK AO2 SLP207
                 T02221017 =
2017-10-20 13:54 METAR KDYL 201754Z AUTO 33009G16KT 10SM CLR 22/00 A3016 RMK AO2 SLP210 T02170000
                 10222 20089 58018 =
2017-10-20 12:54 METAR KDYL 201654Z AUTO 33009G17KT 10SM CLR 21/01 A3018 RMK AO2 SLP219 T02110011
                 =
2017-10-20 11:54 METAR KDYL 201554Z AUTO 32009KT 10SM CLR 20/02 A3020 RMK AO2 SLP224 T02000022 =
2017-10-20 10:54 METAR KDYL 201454Z AUTO 33010G16KT 10SM CLR 19/04 A3021 RMK AO2 SLP229 T01890039
                 50009 =
2017-10-20 09:54 METAR KDYL 201354Z AUTO 31004KT 10SM CLR 18/09 A3021 RMK AO2 SLP230 T01780089 =
2017-10-20 08:54 METAR KDYL 201254Z AUTO 00000KT 10SM CLR 12/09 A3020 RMK AO2 SLP225 T01170089 =
2017-10-20 07:54 METAR KDYL 201154Z AUTO 00000KT 10SM CLR 09/08 A3018 RMK AO2 SLP221 T00890078
                 10122 20083 53020 =
2017-10-20 06:54 METAR KDYL 201054Z AUTO VRB03KT 10SM CLR 09/08 A3015 RMK AO2 SLP212 T00940078 =
2017-10-20 05:54 METAR KDYL 200954Z AUTO 00000KT 10SM CLR 09/08 A3014 RMK AO2 SLP206 T00940083 =
2017-10-20 04:54 METAR KDYL 200854Z AUTO 19003KT 10SM CLR 11/08 A3012 RMK AO2 SLP199 T01060083
                 53002 =
2017-10-20 03:54 METAR KDYL 200754Z AUTO 18004KT 10SM CLR 12/09 A3011 RMK AO2 SLP194 T01170089 =
2017-10-20 02:54 METAR KDYL 200654Z AUTO 18003KT 10SM CLR 12/09 A3011 RMK AO2 SLP193 T01170089 =
2017-10-20 01:54 METAR KDYL 200554Z AUTO 20003KT 10SM CLR 12/09 A3012 RMK AO2 SLP196 T01170089
                 10156 20111 55001 =
2017-10-20 00:54 METAR KDYL 200454Z AUTO 20003KT 10SM CLR 12/09 A3011 RMK AO2 SLP196 T01170089
                 402170061 =
2017-10-19 23:54 METAR KDYL 200354Z AUTO 20004KT 10SM CLR 13/09 A3012 RMK AO2 SLP197 T01280089 =
2017-10-19 22:54 METAR KDYL 200254Z AUTO 23003KT 10SM CLR 13/08 A3012 RMK AO2 SLP198 T01330083
                 51003 =
2017-10-19 21:54 METAR KDYL 200154Z AUTO 23005KT 10SM CLR 14/08 A3012 RMK AO2 SLP199 T01390078 =

Support USWX by starting your Amazon purchase here.